Time;durP1;ratioP1;P1;durP2;ratioP2;P2;SDS_P1;SDS_P2;PMS_P1;PMS_P2;Temp;Humidity;BMP_temperature;BMP_pressure;BME280_temperature;BME280_humidity;BME280_pressure;Samples;Min_cycle;Max_cycle;Signal;HPM_P1;HPM_P2
2021/01/05 00:01:05;;;;;;;18.30;13.80;;;5.90;99.50;;;;;;5052909;28;20182;-73
2021/01/05 00:03:31;;;;;;;14.87;12.17;;;5.90;99.30;;;;;;5053492;28;20253;-73
2021/01/05 00:05:56;;;;;;;15.90;12.67;;;5.90;99.10;;;;;;5053045;28;20249;-73
2021/01/05 00:08:22;;;;;;;17.70;13.77;;;5.90;99.40;;;;;;5052389;28;20476;-72
2021/01/05 00:10:48;;;;;;;17.00;13.73;;;5.90;99.50;;;;;;5053428;28;20213;-73
2021/01/05 00:13:14;;;;;;;16.80;12.73;;;5.90;99.70;;;;;;5051587;28;20174;-75
2021/01/05 00:15:39;;;;;;;17.45;13.65;;;5.90;99.50;;;;;;5051362;28;20212;-73
2021/01/05 00:18:05;;;;;;;19.03;14.00;;;5.90;99.90;;;;;;5052317;28;20614;-72
2021/01/05 00:20:32;;;;;;;16.80;12.83;;;5.80;99.90;;;;;;5052707;28;20170;-72
2021/01/05 00:22:58;;;;;;;15.70;12.80;;;5.90;99.60;;;;;;5053268;28;20420;-71
2021/01/05 00:25:27;;;;;;;18.30;14.02;;;5.90;99.50;;;;;;5051655;28;20188;-73
2021/01/05 00:27:53;;;;;;;20.80;14.80;;;5.90;99.50;;;;;;5041330;28;20184;-75
2021/01/05 00:30:21;;;;;;;17.70;14.20;;;6.00;99.30;;;;;;5041714;28;20190;-74
2021/01/05 00:32:49;;;;;;;16.75;14.07;;;6.00;99.30;;;;;;5053043;28;20174;-74
2021/01/05 00:35:18;;;;;;;18.75;15.07;;;6.00;99.10;;;;;;5052308;28;20228;-73
2021/01/05 00:37:44;;;;;;;17.80;13.80;;;6.00;99.10;;;;;;5052791;28;20272;-73
2021/01/05 00:40:10;;;;;;;16.97;14.17;;;6.00;99.00;;;;;;5052235;28;20279;-73
2021/01/05 00:42:36;;;;;;;17.27;13.85;;;5.90;99.20;;;;;;5052204;28;20181;-74
2021/01/05 00:45:03;;;;;;;17.53;13.53;;;5.90;99.50;;;;;;5052103;28;20197;-75
2021/01/05 00:47:29;;;;;;;18.75;14.98;;;5.90;99.40;;;;;;5052170;28;20954;-74
2021/01/05 00:49:55;;;;;;;16.53;13.50;;;5.90;99.70;;;;;;5052305;28;20170;-73
2021/01/05 00:52:20;;;;;;;16.97;13.30;;;6.00;99.20;;;;;;5035700;28;20259;-74
2021/01/05 00:54:46;;;;;;;17.37;13.27;;;6.00;99.10;;;;;;5052720;28;20208;-75
2021/01/05 00:57:12;;;;;;;16.70;13.47;;;5.90;99.00;;;;;;5052237;28;20247;-72
2021/01/05 00:59:38;;;;;;;17.90;13.67;;;6.00;99.00;;;;;;5051497;28;20181;-74
2021/01/05 01:02:05;;;;;;;17.48;13.60;;;5.80;98.80;;;;;;5052086;28;20434;-74
2021/01/05 01:04:32;;;;;;;18.10;14.05;;;5.70;99.00;;;;;;5051130;28;20182;-74
2021/01/05 01:06:58;;;;;;;18.38;14.02;;;5.70;99.30;;;;;;5051977;28;20528;-74
2021/01/05 01:09:23;;;;;;;17.25;13.18;;;5.70;99.50;;;;;;5051806;28;20249;-73
2021/01/05 01:12:00;;;;;;;18.70;14.30;;;5.70;99.40;;;;;;5052432;28;20292;-73
2021/01/05 01:14:26;;;;;;;18.10;14.23;;;5.80;99.50;;;;;;5049495;28;20173;-74
2021/01/05 01:16:52;;;;;;;20.05;14.25;;;5.60;99.50;;;;;;5052165;28;20506;-71
2021/01/05 01:19:18;;;;;;;17.27;13.83;;;5.80;99.90;;;;;;5050168;28;20239;-71
2021/01/05 01:21:49;;;;;;;17.57;13.37;;;5.70;99.30;;;;;;5052358;28;20712;-71
2021/01/05 01:24:17;;;;;;;17.45;13.98;;;5.50;99.70;;;;;;5053518;28;20480;-72
2021/01/05 01:26:42;;;;;;;16.73;13.80;;;5.60;99.80;;;;;;5057693;28;20507;-71
2021/01/05 01:29:08;;;;;;;16.87;13.93;;;5.60;99.60;;;;;;5059954;28;20173;-75
2021/01/05 01:31:34;;;;;;;15.47;12.80;;;5.70;99.80;;;;;;5059995;28;20212;-74
2021/01/05 01:34:00;;;;;;;16.47;13.00;;;5.70;99.70;;;;;;5061867;28;20253;-74
2021/01/05 01:36:25;;;;;;;20.23;15.20;;;5.70;99.50;;;;;;5059712;28;20336;-71
2021/01/05 01:38:52;;;;;;;19.60;14.60;;;5.70;99.40;;;;;;5060795;28;20757;-74
2021/01/05 01:41:17;;;;;;;21.55;14.98;;;5.60;99.40;;;;;;5060967;28;20298;-72
2021/01/05 01:43:43;;;;;;;16.20;13.33;;;5.70;99.40;;;;;;5051439;28;20261;-71
2021/01/05 01:46:09;;;;;;;16.57;13.80;;;5.80;99.40;;;;;;5055579;28;20395;-72
2021/01/05 01:48:35;;;;;;;20.15;13.90;;;5.80;99.40;;;;;;5059496;28;20188;-72
2021/01/05 01:51:02;;;;;;;19.40;14.17;;;5.80;99.70;;;;;;5060888;28;20197;-72
2021/01/05 01:54:04;;;;;;;17.65;14.00;;;5.80;99.30;;;;;;5060431;28;20620;-72
2021/01/05 01:56:48;;;;;;;19.02;14.50;;;5.90;99.20;;;;;;5060705;28;20188;-72
2021/01/05 01:59:22;;;;;;;17.23;13.90;;;5.90;99.50;;;;;;5064302;28;20595;-72
2021/01/05 02:02:04;;;;;;;17.65;14.80;;;5.90;99.40;;;;;;5072020;28;20682;-71
2021/01/05 02:04:52;;;;;;;17.48;13.70;;;5.90;99.10;;;;;;5059201;28;20176;-72
2021/01/05 02:07:46;;;;;;;16.42;13.80;;;6.00;99.10;;;;;;5056468;28;20170;-72
2021/01/05 02:10:24;;;;;;;20.13;13.57;;;6.00;99.00;;;;;;5058897;28;20193;-72
2021/01/05 02:13:14;;;;;;;16.60;13.55;;;5.90;99.00;;;;;;5065475;28;20185;-72
2021/01/05 02:16:12;;;;;;;19.35;14.68;;;5.90;99.20;;;;;;5060830;28;20693;-72
2021/01/05 02:18:57;;;;;;;15.25;12.20;;;5.90;99.20;;;;;;5060362;28;20541;-72
2021/01/05 02:21:32;;;;;;;17.75;13.90;;;5.90;99.10;;;;;;5062300;28;20170;-72
2021/01/05 02:24:17;;;;;;;20.70;13.95;;;5.90;99.00;;;;;;5061606;28;20184;-72
2021/01/05 02:26:51;;;;;;;17.92;14.23;;;5.80;99.30;;;;;;5062809;28;20174;-71
2021/01/05 02:29:23;;;;;;;18.40;13.63;;;5.70;99.30;;;;;;5060522;28;20173;-72
2021/01/05 02:32:04;;;;;;;19.88;14.70;;;5.70;99.70;;;;;;5063137;28;20607;-72
2021/01/05 02:35:00;;;;;;;20.10;14.35;;;5.80;99.60;;;;;;5060974;28;20221;-72
2021/01/05 02:37:32;;;;;;;21.35;14.75;;;5.70;99.80;;;;;;5062842;28;20577;-72
2021/01/05 02:40:17;;;;;;;20.30;14.30;;;5.70;99.90;;;;;;5063482;28;20524;-72
2021/01/05 02:42:57;;;;;;;18.98;13.38;;;5.70;99.90;;;;;;5062637;28;20182;-72
2021/01/05 02:45:27;;;;;;;21.48;14.80;;;5.80;99.80;;;;;;5059860;28;20264;-71
2021/01/05 02:48:15;;;;;;;18.00;13.90;;;5.70;99.50;;;;;;5055188;28;20166;-71
2021/01/05 02:51:11;;;;;;;17.30;13.63;;;5.70;99.60;;;;;;5062811;28;20293;-71
2021/01/05 02:54:18;;;;;;;20.63;14.43;;;5.70;99.80;;;;;;5064107;28;20678;-72
2021/01/05 02:57:09;;;;;;;19.52;14.13;;;5.80;99.60;;;;;;5060407;28;20174;-72
2021/01/05 02:59:47;;;;;;;21.15;15.75;;;5.80;99.70;;;;;;5063937;28;20161;-71
2021/01/05 03:02:34;;;;;;;20.05;13.93;;;5.70;99.70;;;;;;5063540;28;20720;-72
2021/01/05 03:05:06;;;;;;;17.90;13.43;;;5.70;99.50;;;;;;5059932;28;20186;-71
2021/01/05 03:07:31;;;;;;;19.48;14.32;;;5.80;99.80;;;;;;5063352;28;20684;-71
2021/01/05 03:10:12;;;;;;;21.83;14.20;;;5.70;99.40;;;;;;5059669;28;20178;-71
2021/01/05 03:12:58;;;;;;;21.20;13.75;;;5.60;99.60;;;;;;5054425;28;20429;-71
2021/01/05 03:15:36;;;;;;;18.13;13.70;;;5.70;99.70;;;;;;5059730;28;20209;-71
2021/01/05 03:18:21;;;;;;;17.98;13.43;;;5.60;99.60;;;;;;5102457;28;20191;-71
2021/01/05 03:21:10;;;;;;;17.77;13.85;;;5.60;99.70;;;;;;5062184;28;20184;-71
2021/01/05 03:23:37;;;;;;;19.45;13.75;;;5.50;99.90;;;;;;5034372;28;20175;-71
2021/01/05 03:26:08;;;;;;;19.85;14.02;;;5.50;99.90;;;;;;5040430;28;20188;-72
2021/01/05 03:28:35;;;;;;;17.65;13.35;;;5.40;99.90;;;;;;5063682;28;20158;-71
2021/01/05 03:31:26;;;;;;;19.10;14.00;;;5.40;99.90;;;;;;5061890;28;20206;-71
2021/01/05 03:34:01;;;;;;;21.55;15.20;;;5.30;99.90;;;;;;5065398;28;20315;-71
2021/01/05 03:36:28;;;;;;;19.02;14.40;;;5.40;99.90;;;;;;5073531;28;20564;-74
2021/01/05 03:38:53;;;;;;;19.40;13.35;;;5.30;99.90;;;;;;5053864;28;20190;-71
2021/01/05 03:41:19;;;;;;;18.70;14.03;;;5.40;99.90;;;;;;5053493;28;20295;-71
2021/01/05 03:43:45;;;;;;;19.30;15.43;;;5.60;99.90;;;;;;5054135;28;20166;-71
2021/01/05 03:46:12;;;;;;;20.43;15.20;;;5.60;99.90;;;;;;5053071;28;20173;-74
2021/01/05 03:48:38;;;;;;;19.63;13.65;;;5.70;99.90;;;;;;5054095;28;20563;-71
2021/01/05 03:51:04;;;;;;;18.08;14.45;;;5.50;99.90;;;;;;5053954;28;20665;-71
2021/01/05 03:53:30;;;;;;;20.07;13.20;;;5.50;99.90;;;;;;5052696;28;20197;-71
2021/01/05 03:55:55;;;;;;;19.10;14.00;;;5.60;99.90;;;;;;5053989;28;20178;-72
2021/01/05 03:58:21;;;;;;;22.93;14.20;;;5.60;99.90;;;;;;5052801;28;20536;-72
2021/01/05 04:00:47;;;;;;;18.13;13.87;;;5.60;99.90;;;;;;5053786;28;20774;-72
2021/01/05 04:03:13;;;;;;;20.20;14.07;;;5.60;99.90;;;;;;5052997;28;20206;-72
2021/01/05 04:05:39;;;;;;;20.47;14.40;;;5.50;99.90;;;;;;5053774;28;20178;-72
2021/01/05 04:08:04;;;;;;;19.60;14.10;;;5.50;99.90;;;;;;5053015;28;20424;-72
2021/01/05 04:10:30;;;;;;;23.10;15.20;;;5.60;99.90;;;;;;5084961;28;20716;-72
2021/01/05 04:12:57;;;;;;;20.40;14.10;;;5.60;99.90;;;;;;5053576;28;20444;-72
2021/01/05 04:15:26;;;;;;;19.33;14.63;;;5.70;99.90;;;;;;5052484;28;20193;-72
2021/01/05 04:17:53;;;;;;;20.02;15.68;;;5.60;99.90;;;;;;5052330;28;20610;-72
2021/01/05 04:20:20;;;;;;;20.00;13.40;;;5.70;99.90;;;;;;5052568;28;20264;-72
2021/01/05 04:22:46;;;;;;;23.95;14.10;;;5.80;99.90;;;;;;5053378;28;20178;-72
2021/01/05 04:25:14;;;;;;;20.63;14.50;;;5.70;99.90;;;;;;5052943;28;20215;-73
2021/01/05 04:27:40;;;;;;;19.88;14.98;;;5.50;99.90;;;;;;5053214;28;20198;-72
2021/01/05 04:30:08;;;;;;;23.60;14.17;;;5.60;99.90;;;;;;5053180;28;20209;-72
2021/01/05 04:32:34;;;;;;;19.40;13.60;;;5.70;99.90;;;;;;5052315;28;20460;-71
2021/01/05 04:35:00;;;;;;;21.60;14.63;;;5.70;99.90;;;;;;5052783;28;20556;-72
2021/01/05 04:37:26;;;;;;;18.98;13.20;;;5.60;99.90;;;;;;5051021;28;20174;-71
2021/01/05 04:39:52;;;;;;;20.07;14.00;;;5.60;99.90;;;;;;5052339;28;20249;-71
2021/01/05 04:42:32;;;;;;;20.70;13.80;;;5.60;99.90;;;;;;5052256;28;20182;-72
2021/01/05 04:45:20;;;;;;;21.13;14.43;;;5.70;99.90;;;;;;5052893;28;20637;-71
2021/01/05 04:48:13;;;;;;;17.75;13.20;;;5.70;99.90;;;;;;5051882;28;20166;-71
2021/01/05 04:50:43;;;;;;;21.73;14.73;;;5.70;99.90;;;;;;5052350;28;20182;-72
2021/01/05 04:53:32;;;;;;;17.77;12.85;;;5.60;99.90;;;;;;5051687;28;20170;-71
2021/01/05 04:56:11;;;;;;;20.55;13.95;;;5.60;99.90;;;;;;5052839;28;20178;-71
2021/01/05 04:58:39;;;;;;;18.48;13.55;;;5.50;99.90;;;;;;5052499;28;20162;-72
2021/01/05 05:01:17;;;;;;;25.13;16.30;;;5.60;99.90;;;;;;5052626;28;20181;-72
2021/01/05 05:04:26;;;;;;;20.42;14.70;;;5.60;99.90;;;;;;5051509;28;20173;-72
2021/01/05 05:06:57;;;;;;;20.63;15.90;;;5.50;99.90;;;;;;5052263;28;20299;-72
2021/01/05 05:09:25;;;;;;;23.00;14.90;;;5.60;99.90;;;;;;5050239;28;20541;-72
2021/01/05 05:12:09;;;;;;;23.00;15.77;;;5.60;99.90;;;;;;5052155;28;20235;-74
2021/01/05 05:14:45;;;;;;;20.58;13.52;;;5.60;99.90;;;;;;5051988;28;20150;-72
2021/01/05 05:17:45;;;;;;;23.50;17.63;;;5.70;99.90;;;;;;5052496;28;20239;-72
2021/01/05 05:20:26;;;;;;;22.17;15.50;;;5.70;99.90;;;;;;5084703;28;20245;-71
2021/01/05 05:23:19;;;;;;;19.10;13.80;;;5.80;99.90;;;;;;5052407;28;20249;-72
2021/01/05 05:25:52;;;;;;;23.45;14.38;;;5.70;99.90;;;;;;5052140;28;20170;-72
2021/01/05 05:28:52;;;;;;;18.98;14.10;;;5.80;99.90;;;;;;5051051;28;20169;-72
2021/01/05 05:31:22;;;;;;;20.38;13.23;;;5.80;99.90;;;;;;5051460;28;20653;-72
2021/01/05 05:33:51;;;;;;;21.35;13.95;;;5.60;99.90;;;;;;5052165;28;20221;-72
2021/01/05 05:36:50;;;;;;;18.15;12.57;;;5.70;99.90;;;;;;5051137;28;20188;-73
2021/01/05 05:39:49;;;;;;;20.38;13.55;;;5.70;99.90;;;;;;5031019;28;20198;-73
2021/01/05 05:42:41;;;;;;;22.95;14.25;;;5.70;99.90;;;;;;5037891;28;20181;-73
2021/01/05 05:45:09;;;;;;;21.77;15.93;;;5.70;99.90;;;;;;5051410;28;20181;-72
2021/01/05 05:47:57;;;;;;;19.10;13.20;;;5.60;99.90;;;;;;5051003;28;20181;-72
2021/01/05 05:50:43;;;;;;;18.75;14.50;;;5.60;99.90;;;;;;5051044;28;20625;-72
2021/01/05 05:53:14;;;;;;;21.85;14.75;;;5.60;99.90;;;;;;5052167;28;20173;-71
2021/01/05 05:56:04;;;;;;;24.17;13.50;;;5.50;99.90;;;;;;5051474;28;20178;-72
2021/01/05 05:58:39;;;;;;;21.65;14.00;;;5.60;99.90;;;;;;5050532;28;20258;-72
2021/01/05 06:01:10;;;;;;;21.73;13.75;;;5.60;99.90;;;;;;5051451;28;20173;-72
2021/01/05 06:03:36;;;;;;;22.63;14.45;;;5.60;99.90;;;;;;5051499;28;20158;-72
2021/01/05 06:06:04;;;;;;;22.30;13.63;;;5.70;99.90;;;;;;5052193;28;20236;-72
2021/01/05 06:08:30;;;;;;;20.73;12.65;;;5.70;99.90;;;;;;5050459;28;20186;-72
2021/01/05 06:10:56;;;;;;;25.45;14.52;;;5.70;99.90;;;;;;5051401;28;20205;-72
2021/01/05 06:13:24;;;;;;;22.70;15.13;;;5.70;99.90;;;;;;5050780;28;20185;-72
2021/01/05 06:15:51;;;;;;;23.50;13.90;;;5.70;99.90;;;;;;5051820;28;20612;-71
2021/01/05 06:18:19;;;;;;;21.40;13.45;;;5.80;99.90;;;;;;5051395;28;20541;-73
2021/01/05 06:20:46;;;;;;;26.60;15.80;;;5.80;99.90;;;;;;5051628;28;20189;-71
2021/01/05 06:23:12;;;;;;;19.42;13.48;;;5.80;99.90;;;;;;5051646;28;20182;-71
2021/01/05 06:25:38;;;;;;;21.17;15.30;;;5.80;99.90;;;;;;5050591;28;20729;-72
2021/01/05 06:28:06;;;;;;;19.48;14.27;;;5.80;99.90;;;;;;5051269;28;20182;-71
2021/01/05 06:30:32;;;;;;;22.05;13.15;;;5.70;99.90;;;;;;5050111;28;20174;-72
2021/01/05 06:32:58;;;;;;;22.15;14.65;;;5.80;99.90;;;;;;5050579;28;20186;-72
2021/01/05 06:35:24;;;;;;;23.60;14.47;;;5.80;99.90;;;;;;5050141;28;20219;-72
2021/01/05 06:37:51;;;;;;;21.50;15.93;;;5.80;99.90;;;;;;5051491;28;20192;-72
2021/01/05 06:40:23;;;;;;;22.52;13.65;;;5.80;99.90;;;;;;5051543;28;20170;-73
2021/01/05 06:42:49;;;;;;;20.92;14.13;;;5.80;99.90;;;;;;5050298;28;20186;-72
2021/01/05 06:45:19;;;;;;;23.10;14.25;;;5.70;99.90;;;;;;5050906;28;20182;-72
2021/01/05 06:47:45;;;;;;;19.60;13.65;;;5.70;99.90;;;;;;5049659;28;20186;-72
2021/01/05 06:50:12;;;;;;;19.80;13.57;;;5.80;99.90;;;;;;5051188;28;20178;-71
2021/01/05 06:52:38;;;;;;;23.83;15.32;;;5.80;99.90;;;;;;5050644;28;20703;-72
2021/01/05 06:55:04;;;;;;;27.47;14.37;;;5.80;99.90;;;;;;5051220;28;20674;-72
2021/01/05 06:57:30;;;;;;;23.83;14.23;;;5.80;99.90;;;;;;5052396;28;20178;-72
2021/01/05 06:59:55;;;;;;;22.10;14.67;;;5.80;99.90;;;;;;5054886;28;20540;-72
2021/01/05 07:02:21;;;;;;;22.60;14.10;;;5.80;99.90;;;;;;5054056;28;20173;-73
2021/01/05 07:04:47;;;;;;;20.07;13.50;;;5.90;99.90;;;;;;5051382;28;20181;-71
2021/01/05 07:07:12;;;;;;;22.13;14.87;;;5.80;99.90;;;;;;5053925;28;20563;-72
2021/01/05 07:09:38;;;;;;;23.03;14.83;;;5.80;99.90;;;;;;5054717;28;20736;-72
2021/01/05 07:12:04;;;;;;;26.00;15.73;;;5.80;99.90;;;;;;5055087;28;20205;-72
2021/01/05 07:14:30;;;;;;;26.20;15.90;;;5.70;99.90;;;;;;5052582;28;20523;-72
2021/01/05 07:16:56;;;;;;;24.53;16.97;;;5.80;99.90;;;;;;5054473;28;20178;-72
2021/01/05 07:19:22;;;;;;;28.27;16.00;;;5.80;99.90;;;;;;5054074;28;20451;-74
2021/01/05 07:21:48;;;;;;;25.73;16.35;;;5.90;99.90;;;;;;5054085;28;20272;-72
2021/01/05 07:24:14;;;;;;;25.97;14.20;;;5.80;99.90;;;;;;5053118;28;20258;-72
2021/01/05 07:26:46;;;;;;;20.15;12.73;;;5.80;99.90;;;;;;5053507;28;21017;-71
2021/01/05 07:29:14;;;;;;;26.90;15.65;;;5.70;99.90;;;;;;5051918;28;20174;-74
2021/01/05 07:31:40;;;;;;;22.63;15.20;;;5.80;99.90;;;;;;5051442;28;20205;-72
2021/01/05 07:34:06;;;;;;;21.63;14.50;;;5.90;99.90;;;;;;5054562;28;20222;-71
2021/01/05 07:36:35;;;;;;;24.80;15.10;;;5.80;99.90;;;;;;5054109;28;20689;-71
2021/01/05 07:39:10;;;;;;;19.58;14.27;;;5.80;99.90;;;;;;5053951;28;20403;-72
2021/01/05 07:41:36;;;;;;;21.13;15.10;;;5.80;99.90;;;;;;5053519;28;20205;-72
2021/01/05 07:44:01;;;;;;;22.33;14.77;;;5.70;99.90;;;;;;5054248;28;20256;-73
2021/01/05 07:46:27;;;;;;;21.20;15.70;;;5.80;99.90;;;;;;5053352;28;20196;-74
2021/01/05 07:48:53;;;;;;;24.83;16.20;;;5.70;99.90;;;;;;5053781;28;20170;-75
2021/01/05 07:51:18;;;;;;;20.60;16.00;;;6.20;99.90;;;;;;5054293;28;20197;-74
2021/01/05 07:53:44;;;;;;;21.63;14.27;;;6.20;99.90;;;;;;5052001;28;20178;-75
2021/01/05 07:56:10;;;;;;;22.37;13.50;;;6.30;99.90;;;;;;5051517;28;20186;-74
2021/01/05 07:58:35;;;;;;;22.90;15.30;;;6.80;99.90;;;;;;5053816;28;20281;-74
2021/01/05 08:01:01;;;;;;;23.07;14.00;;;7.60;99.90;;;;;;5054731;28;20184;-75
2021/01/05 08:03:27;;;;;;;21.27;15.90;;;8.10;99.90;;;;;;5053597;28;20175;-75
2021/01/05 08:05:53;;;;;;;21.93;15.43;;;8.50;99.70;;;;;;5054105;28;20403;-75
2021/01/05 08:08:18;;;;;;;21.30;16.90;;;9.00;99.10;;;;;;5052531;28;20230;-72
2021/01/05 08:10:44;;;;;;;21.57;14.40;;;9.20;96.10;;;;;;5053344;28;20192;-72
2021/01/05 08:13:11;;;;;;;24.93;17.50;;;9.10;94.40;;;;;;5053692;28;20593;-72
2021/01/05 08:15:37;;;;;;;25.70;15.10;;;8.80;94.10;;;;;;5053297;28;20201;-74
2021/01/05 08:18:06;;;;;;;23.23;16.20;;;8.40;94.90;;;;;;5053766;28;20411;-73
2021/01/05 08:20:32;;;;;;;23.63;15.40;;;8.20;95.10;;;;;;5049714;28;20423;-72
2021/01/05 08:23:00;;;;;;;25.43;15.30;;;7.90;95.70;;;;;;5053737;28;20402;-73
2021/01/05 08:25:26;;;;;;;21.07;15.03;;;7.80;95.80;;;;;;5053229;28;20433;-73
2021/01/05 08:27:54;;;;;;;23.37;14.73;;;7.50;96.80;;;;;;5052746;28;20438;-73
2021/01/05 08:30:26;;;;;;;24.80;16.43;;;7.30;97.20;;;;;;5052428;28;20952;-73
2021/01/05 08:32:53;;;;;;;23.60;15.47;;;7.10;97.90;;;;;;5052947;28;20428;-74
2021/01/05 08:35:22;;;;;;;22.07;15.77;;;7.00;98.80;;;;;;5053345;28;20498;-73
2021/01/05 08:37:48;;;;;;;21.63;15.00;;;6.90;99.10;;;;;;5051154;28;20424;-73
2021/01/05 08:40:23;;;;;;;24.77;15.50;;;6.70;98.90;;;;;;5052743;28;20437;-73
2021/01/05 08:42:49;;;;;;;23.23;14.40;;;6.50;99.80;;;;;;5051818;28;20387;-76
2021/01/05 08:45:15;;;;;;;21.90;14.43;;;6.40;99.70;;;;;;5051329;28;20395;-73
2021/01/05 08:47:41;;;;;;;20.90;14.00;;;6.20;99.40;;;;;;5053042;28;20394;-74
2021/01/05 08:50:10;;;;;;;21.90;13.90;;;6.20;99.90;;;;;;5052869;28;20673;-73
2021/01/05 08:52:36;;;;;;;23.77;14.30;;;6.10;99.70;;;;;;5051977;28;20209;-73
2021/01/05 08:55:02;;;;;;;20.83;13.80;;;6.00;99.90;;;;;;5052250;28;20255;-73
2021/01/05 08:57:27;;;;;;;20.75;14.00;;;5.90;99.90;;;;;;5085033;28;20236;-76
2021/01/05 08:59:53;;;;;;;24.93;14.73;;;6.00;99.90;;;;;;5052233;28;20178;-73
2021/01/05 09:02:19;;;;;;;25.63;15.93;;;5.90;99.90;;;;;;5052369;28;20277;-73
2021/01/05 09:04:45;;;;;;;21.20;13.40;;;6.00;99.90;;;;;;5051601;28;20431;-74
2021/01/05 09:07:10;;;;;;;22.37;14.13;;;6.00;99.90;;;;;;5052634;28;20570;-74
2021/01/05 09:09:36;;;;;;;26.03;15.90;;;6.10;99.90;;;;;;5076841;28;20182;-75
2021/01/05 09:12:02;;;;;;;25.40;14.77;;;6.10;99.90;;;;;;5032385;28;20682;-75
2021/01/05 09:14:28;;;;;;;22.98;15.50;;;5.90;99.90;;;;;;5043303;28;20186;-76
2021/01/05 09:16:58;;;;;;;25.80;16.10;;;5.90;99.90;;;;;;5052499;28;20192;-75
2021/01/05 09:19:25;;;;;;;23.90;14.98;;;5.80;99.90;;;;;;5052210;28;20263;-75
2021/01/05 09:21:50;;;;;;;24.10;18.17;;;5.80;99.90;;;;;;5052190;28;20185;-76
2021/01/05 09:24:17;;;;;;;26.33;16.90;;;5.90;99.90;;;;;;5051384;28;20178;-75
2021/01/05 09:26:42;;;;;;;26.00;16.08;;;5.90;99.90;;;;;;5052140;28;20177;-75
2021/01/05 09:29:10;;;;;;;26.70;15.90;;;5.90;99.90;;;;;;5052657;28;20644;-75
2021/01/05 09:31:41;;;;;;;28.38;16.05;;;6.00;99.90;;;;;;5051983;28;20212;-75
2021/01/05 09:34:07;;;;;;;20.50;15.35;;;5.90;99.90;;;;;;5052478;28;20218;-75
2021/01/05 09:36:34;;;;;;;25.90;16.77;;;5.90;99.90;;;;;;5052043;28;20189;-76
2021/01/05 09:39:02;;;;;;;23.02;16.35;;;5.90;99.90;;;;;;5052264;28;20253;-75
2021/01/05 09:41:37;;;;;;;25.42;16.52;;;5.90;99.90;;;;;;5050633;28;20657;-76
2021/01/05 09:44:04;;;;;;;24.20;16.17;;;5.80;99.90;;;;;;5051185;28;20184;-75
2021/01/05 09:46:29;;;;;;;26.58;16.50;;;5.80;99.90;;;;;;5050598;28;20571;-75
2021/01/05 09:48:55;;;;;;;25.93;17.33;;;5.90;99.90;;;;;;5052380;28;20200;-75
2021/01/05 09:51:26;;;;;;;27.77;17.80;;;6.00;99.90;;;;;;5052407;28;20248;-75
2021/01/05 09:53:52;;;;;;;29.20;16.92;;;6.00;99.90;;;;;;5051796;28;20261;-75
2021/01/05 09:56:18;;;;;;;27.13;16.43;;;6.10;99.90;;;;;;5052355;28;20221;-76
2021/01/05 09:58:44;;;;;;;26.07;15.03;;;6.10;99.90;;;;;;5051730;28;20193;-75
2021/01/05 10:01:11;;;;;;;21.25;14.30;;;6.20;99.90;;;;;;5051979;28;20209;-76
2021/01/05 10:03:37;;;;;;;26.08;13.95;;;6.10;99.90;;;;;;5050438;28;20213;-76
2021/01/05 10:06:03;;;;;;;25.17;15.17;;;6.10;99.90;;;;;;5052271;28;20178;-75
2021/01/05 10:08:29;;;;;;;24.03;14.67;;;5.90;99.90;;;;;;5052234;28;20173;-75
2021/01/05 10:10:54;;;;;;;22.50;14.50;;;5.90;99.90;;;;;;5052147;28;20528;-75
2021/01/05 10:13:20;;;;;;;19.40;14.67;;;5.90;99.90;;;;;;5052099;28;20178;-75
2021/01/05 10:15:46;;;;;;;24.90;14.80;;;5.80;99.90;;;;;;5056300;28;20176;-75
2021/01/05 10:18:12;;;;;;;23.27;14.50;;;5.90;99.90;;;;;;5059496;28;20724;-76
2021/01/05 10:20:38;;;;;;;23.77;15.87;;;5.80;99.90;;;;;;5059238;28;20644;-75
2021/01/05 10:23:03;;;;;;;24.30;15.87;;;5.80;99.90;;;;;;5062507;28;20391;-76
2021/01/05 10:25:29;;;;;;;22.50;15.00;;;5.80;99.90;;;;;;5058525;28;20185;-79
2021/01/05 10:27:55;;;;;;;24.97;15.90;;;5.80;99.90;;;;;;5061760;28;20189;-76
2021/01/05 10:30:21;;;;;;;22.00;14.70;;;5.80;99.90;;;;;;5059126;28;20432;-76
2021/01/05 10:32:47;;;;;;;23.20;15.18;;;5.90;99.90;;;;;;5063467;28;20201;-76
2021/01/05 10:35:18;;;;;;;27.20;16.13;;;5.90;99.90;;;;;;5065526;28;20209;-75
2021/01/05 10:37:47;;;;;;;25.30;15.63;;;5.90;99.90;;;;;;5064071;28;20228;-76
2021/01/05 10:40:16;;;;;;;25.65;17.65;;;5.90;99.90;;;;;;5063501;28;20178;-76
2021/01/05 10:42:44;;;;;;;22.95;15.18;;;6.00;99.90;;;;;;5075103;28;20196;-75
2021/01/05 10:45:12;;;;;;;26.15;18.35;;;6.00;99.90;;;;;;5058059;28;20178;-75
2021/01/05 10:47:41;;;;;;;22.00;15.07;;;6.00;99.90;;;;;;5055032;28;20178;-76
2021/01/05 10:50:13;;;;;;;22.98;16.83;;;6.00;99.90;;;;;;5055673;28;20170;-76
2021/01/05 10:52:38;;;;;;;26.92;16.08;;;6.00;99.90;;;;;;5054896;28;20209;-76
2021/01/05 10:55:06;;;;;;;22.17;16.13;;;6.10;99.90;;;;;;5055518;28;20174;-75
2021/01/05 10:57:32;;;;;;;26.33;17.48;;;6.20;99.90;;;;;;5054815;28;20185;-76
2021/01/05 10:59:57;;;;;;;25.83;15.60;;;6.20;99.90;;;;;;5055431;28;20170;-76
2021/01/05 11:02:23;;;;;;;22.47;14.93;;;6.30;99.90;;;;;;5055534;28;20874;-75
2021/01/05 11:04:49;;;;;;;21.50;15.50;;;6.30;99.90;;;;;;5054715;28;20178;-75
2021/01/05 11:07:16;;;;;;;21.80;15.23;;;6.20;99.90;;;;;;5053639;28;20417;-76
2021/01/05 11:09:43;;;;;;;23.85;14.63;;;6.20;99.90;;;;;;5054491;28;20256;-76
2021/01/05 11:12:19;;;;;;;20.40;14.75;;;6.20;99.90;;;;;;5053842;28;20209;-75
2021/01/05 11:14:45;;;;;;;24.57;16.90;;;6.20;99.90;;;;;;5053083;28;20185;-75
2021/01/05 11:17:10;;;;;;;21.70;14.80;;;6.20;99.90;;;;;;5055088;28;20905;-75
2021/01/05 11:19:37;;;;;;;19.77;14.60;;;6.10;99.90;;;;;;5054476;28;20178;-76
2021/01/05 11:22:06;;;;;;;24.90;15.18;;;6.20;99.90;;;;;;5054982;28;20182;-75
2021/01/05 11:24:35;;;;;;;20.63;14.15;;;6.20;99.90;;;;;;5054267;28;20610;-79
2021/01/05 11:27:02;;;;;;;22.90;14.32;;;6.20;99.90;;;;;;5053730;28;20178;-75
2021/01/05 11:29:28;;;;;;;26.70;16.25;;;6.00;99.90;;;;;;5037068;28;20182;-75
2021/01/05 11:31:58;;;;;;;23.10;15.23;;;6.10;99.90;;;;;;5054141;28;20216;-75
2021/01/05 11:34:24;;;;;;;25.70;15.27;;;6.20;99.90;;;;;;5054274;28;20547;-75
2021/01/05 11:36:51;;;;;;;25.75;15.90;;;6.20;99.90;;;;;;5053696;28;20186;-75
2021/01/05 11:39:18;;;;;;;22.67;15.55;;;6.30;99.90;;;;;;5054652;28;20184;-75
2021/01/05 11:41:45;;;;;;;24.13;17.23;;;6.30;99.90;;;;;;5052789;28;20220;-75
2021/01/05 11:44:14;;;;;;;28.35;16.42;;;6.30;99.90;;;;;;5053709;28;20883;-76
2021/01/05 11:46:40;;;;;;;21.25;15.40;;;6.30;99.90;;;;;;5053946;28;20581;-75
2021/01/05 11:49:06;;;;;;;21.25;15.30;;;6.40;99.90;;;;;;5053608;28;20182;-75
2021/01/05 11:51:35;;;;;;;25.40;17.10;;;6.40;99.90;;;;;;5054274;28;20198;-75
2021/01/05 11:54:01;;;;;;;24.77;14.75;;;6.30;99.90;;;;;;5053952;28;20178;-75
2021/01/05 11:56:29;;;;;;;23.73;15.57;;;6.30;99.90;;;;;;5054370;28;20539;-76
2021/01/05 11:58:55;;;;;;;21.45;15.38;;;6.40;99.90;;;;;;5053622;28;20511;-76
2021/01/05 12:01:22;;;;;;;22.50;15.13;;;6.50;99.90;;;;;;5054238;28;20243;-75
2021/01/05 12:03:48;;;;;;;20.38;16.55;;;6.60;99.90;;;;;;5053577;28;20211;-76
2021/01/05 12:06:20;;;;;;;20.70;14.68;;;6.60;99.90;;;;;;5053857;28;20624;-76
2021/01/05 12:08:46;;;;;;;21.13;13.80;;;6.60;99.70;;;;;;5053523;28;20252;-75
2021/01/05 12:11:35;;;;;;;18.88;13.85;;;6.60;99.60;;;;;;5053884;28;20657;-75
2021/01/05 12:14:02;;;;;;;17.30;13.20;;;6.60;99.20;;;;;;5052677;28;20185;-75
2021/01/05 12:16:35;;;;;;;17.93;12.23;;;6.60;99.20;;;;;;5053585;28;20228;-75
2021/01/05 12:19:04;;;;;;;15.47;12.20;;;6.50;99.20;;;;;;5053400;28;20387;-75
2021/01/05 12:21:33;;;;;;;15.65;13.07;;;6.50;99.20;;;;;;5052608;28;20395;-75
2021/01/05 12:23:59;;;;;;;18.38;13.55;;;6.40;99.30;;;;;;5053453;28;20205;-75
2021/01/05 12:26:37;;;;;;;17.70;12.27;;;6.40;99.50;;;;;;5053703;28;20213;-75
2021/01/05 12:29:12;;;;;;;16.23;13.05;;;6.40;99.50;;;;;;5053738;28;20443;-75
2021/01/05 12:31:43;;;;;;;22.08;12.60;;;6.40;99.90;;;;;;5053023;28;20645;-75
2021/01/05 12:34:10;;;;;;;17.83;12.25;;;6.40;99.90;;;;;;5053394;28;20209;-74
2021/01/05 12:36:39;;;;;;;18.10;13.38;;;6.40;99.90;;;;;;5053137;28;20239;-79
2021/01/05 12:39:08;;;;;;;18.77;13.80;;;6.40;99.90;;;;;;5053583;28;20587;-75
2021/01/05 12:41:36;;;;;;;16.60;12.48;;;6.40;99.90;;;;;;5057852;28;20178;-75
2021/01/05 12:44:04;;;;;;;20.52;14.98;;;6.40;99.90;;;;;;5071983;28;20659;-74
2021/01/05 12:46:33;;;;;;;20.15;14.80;;;6.40;99.90;;;;;;5073477;28;20173;-75
2021/01/05 12:48:59;;;;;;;19.73;14.43;;;6.40;99.90;;;;;;5054066;28;20189;-75
2021/01/05 12:51:26;;;;;;;21.80;14.80;;;6.30;99.90;;;;;;5051739;28;20197;-74